Dream Angel — 3EEV — position and weather

sailwx.info

Track history (hours):
 
Tides and Currents Weather Stations Pressure Air Temp Water Temp Dewpoint Dewpoint Depression Visibility Wind Speed Wind Dir Waves Ship Positions

Dream Angel

Last reported at 2016-Apr-29 18:26 UTC. Time now 2016-May-03 01:13 UTC.
Position N 34°02' E 130°14'.

Length 187 m; draft 7.2 m.

Type: Cargo ship. MMSI: 371820000.

Date/timePositionNaut miles runAvg speedWind from/ knotsBaromVisibWave heightAir tempDewpointWater temp
2016-Apr-29 18:26N 34°02' E 130°14'1617.8
2016-Apr-29 17:31N 34°02' E 130°33'38213.6
2016-Apr-28 13:22N 34°18' E 138°14'7816.1
2016-Apr-28 08:33N 34°55' E 139°37'1716.7
2016-Apr-28 07:33N 35°10' E 139°45'1111.2
2016-Apr-28 06:33N 35°21' E 139°42'6 6.0
2016-Apr-28 05:33N 35°27' E 139°41'0 0.0
2016-Apr-28 04:33N 35°27' E 139°41'0 0.0
2016-Apr-28 03:33N 35°27' E 139°41'0 0.0
2016-Apr-28 02:33N 35°27' E 139°41'0 0.0
2016-Apr-28 01:33N 35°27' E 139°41'2 1.7
2016-Apr-28 00:33N 35°26' E 139°42'1 0.6
2016-Apr-27 23:32N 35°25' E 139°42'0 0.0
2016-Apr-27 22:32N 35°25' E 139°42'0 0.0
2016-Apr-27 21:32N 35°25' E 139°42'0 0.0
2016-Apr-27 20:32N 35°25' E 139°42'0 0.0
2016-Apr-27 19:32N 35°25' E 139°42'0 0.0
2016-Apr-27 18:32N 35°25' E 139°42'0 0.0
2016-Apr-27 17:33N 35°25' E 139°42'0 0.0
2016-Apr-27 16:33N 35°25' E 139°42'0 0.0
2016-Apr-27 15:33N 35°25' E 139°42'0 0.0
2016-Apr-27 14:33N 35°25' E 139°42'0 0.0
2016-Apr-27 13:33N 35°25' E 139°42'0 0.0
2016-Apr-27 12:33N 35°25' E 139°42'0 0.0
2016-Apr-27 11:33N 35°25' E 139°42'0 0.1
2016-Apr-27 10:33N 35°25' E 139°42'0 0.0
2016-Apr-27 09:33N 35°25' E 139°42'0 0.0
2016-Apr-27 08:33N 35°25' E 139°42'0 0.2
2016-Apr-27 07:33N 35°25' E 139°42'1 1.3
2016-Apr-27 06:33N 35°25' E 139°41'0 0.0
2016-Apr-27 05:33N 35°25' E 139°41'0 0.0
2016-Apr-27 04:33N 35°25' E 139°41'0 0.0
2016-Apr-27 03:33N 35°25' E 139°41'0 0.0
2016-Apr-27 02:33N 35°25' E 139°41'0 0.0
2016-Apr-27 01:33N 35°25' E 139°41'0 0.0
2016-Apr-27 00:33N 35°25' E 139°41'0 0.0
2016-Apr-26 23:33N 35°25' E 139°41'0 0.0
2016-Apr-26 22:33N 35°25' E 139°41'2 2.0
2016-Apr-26 21:33N 35°24' E 139°42'1110.7
2016-Apr-26 20:33N 35°14' E 139°47'9 9.2
2016-Apr-26 19:33N 35°05' E 139°45'8 8.0
2016-Apr-26 18:33N 34°57' E 139°41'1111.4
2016-Apr-26 17:33N 34°46' E 139°41'1110.8
2016-Apr-26 16:33N 34°36' E 139°38'1414.0
2016-Apr-26 15:33N 34°34' E 139°21'1615.9
2016-Apr-26 14:33N 34°29' E 139°03'3215.7
2016-Apr-26 12:33N 34°25' E 138°25'  
Track history (hours):
 
Tides and Currents Weather Stations Pressure Air Temp Water Temp Dewpoint Dewpoint Depression Visibility Wind Speed Wind Dir Waves Ship Positions

Dream Angel

Last reported at 2016-Apr-29 18:26 UTC. Time now 2016-May-03 01:13 UTC.
Position N 34°02' E 130°14'.

Length 187 m; draft 7.2 m.

Type: Cargo ship. MMSI: 371820000.

Date/timePositionNaut miles runAvg speedWind from/ knotsBaromVisibWave heightAir tempDewpointWater temp
2016-Apr-29 18:26N 34°02' E 130°14'1617.8
2016-Apr-29 17:31N 34°02' E 130°33'38213.6
2016-Apr-28 13:22N 34°18' E 138°14'7816.1
2016-Apr-28 08:33N 34°55' E 139°37'1716.7
2016-Apr-28 07:33N 35°10' E 139°45'1111.2
2016-Apr-28 06:33N 35°21' E 139°42'6 6.0
2016-Apr-28 05:33N 35°27' E 139°41'0 0.0
2016-Apr-28 04:33N 35°27' E 139°41'0 0.0
2016-Apr-28 03:33N 35°27' E 139°41'0 0.0
2016-Apr-28 02:33N 35°27' E 139°41'0 0.0
2016-Apr-28 01:33N 35°27' E 139°41'2 1.7
2016-Apr-28 00:33N 35°26' E 139°42'1 0.6
2016-Apr-27 23:32N 35°25' E 139°42'0 0.0
2016-Apr-27 22:32N 35°25' E 139°42'0 0.0
2016-Apr-27 21:32N 35°25' E 139°42'0 0.0
2016-Apr-27 20:32N 35°25' E 139°42'0 0.0
2016-Apr-27 19:32N 35°25' E 139°42'0 0.0
2016-Apr-27 18:32N 35°25' E 139°42'0 0.0
2016-Apr-27 17:33N 35°25' E 139°42'0 0.0
2016-Apr-27 16:33N 35°25' E 139°42'0 0.0
2016-Apr-27 15:33N 35°25' E 139°42'0 0.0
2016-Apr-27 14:33N 35°25' E 139°42'0 0.0
2016-Apr-27 13:33N 35°25' E 139°42'0 0.0
2016-Apr-27 12:33N 35°25' E 139°42'0 0.0
2016-Apr-27 11:33N 35°25' E 139°42'0 0.1
2016-Apr-27 10:33N 35°25' E 139°42'0 0.0
2016-Apr-27 09:33N 35°25' E 139°42'0 0.0
2016-Apr-27 08:33N 35°25' E 139°42'0 0.2
2016-Apr-27 07:33N 35°25' E 139°42'1 1.3
2016-Apr-27 06:33N 35°25' E 139°41'0 0.0
2016-Apr-27 05:33N 35°25' E 139°41'0 0.0
2016-Apr-27 04:33N 35°25' E 139°41'0 0.0
2016-Apr-27 03:33N 35°25' E 139°41'0 0.0
2016-Apr-27 02:33N 35°25' E 139°41'0 0.0
2016-Apr-27 01:33N 35°25' E 139°41'0 0.0
2016-Apr-27 00:33N 35°25' E 139°41'0 0.0
2016-Apr-26 23:33N 35°25' E 139°41'0 0.0
2016-Apr-26 22:33N 35°25' E 139°41'2 2.0
2016-Apr-26 21:33N 35°24' E 139°42'1110.7
2016-Apr-26 20:33N 35°14' E 139°47'9 9.2
2016-Apr-26 19:33N 35°05' E 139°45'8 8.0
2016-Apr-26 18:33N 34°57' E 139°41'1111.4
2016-Apr-26 17:33N 34°46' E 139°41'1110.8
2016-Apr-26 16:33N 34°36' E 139°38'1414.0
2016-Apr-26 15:33N 34°34' E 139°21'1615.9
2016-Apr-26 14:33N 34°29' E 139°03'3215.7
2016-Apr-26 12:33N 34°25' E 138°25'  

Dump ship's entire track history